Tiempo atmosférico en la estación meteorológica de Josa i Tuixén, Lleida (1190 m.)



Fecha
DESCASC
Temp. máxima en grados centígrados (hora)
DESCASC
Temp. mínima en grados centígrados (hora)
DESCASC
Temp. media en grados centígrados
DESCASC
Racha de viento máxima en m/sg (hora)
DESCASC
Velocidad máxima media en intervalos de 10 minutos(hora)
DESCASC
Precipitaciones diarias en mm
DESCASC
Precipitaciones de 00:00 a 06:00 en mm
DESCASC
Precipitaciones de 06:00 a 12:00 en mm
DESCASC
Precipitaciones de 12:00 a 18:00 en mm
DESCASC
Precipitaciones de 18:00 a 24:00 en mm
DESCASC

Gráficas

Temp. máximas Temp. mínimas Temp. medias Precipitaciones Rachas de viento máximas Velocidades máximas media en intervalos de 10 minutos

Datos horarios

Fecha y hora oficial Temperatura (ºC) Velocidad del viento (km/h) Dirección del viento Racha (km/h) Dirección de racha Precipitación (mm) Presión (hPa) Tendencia (hPa) Humedad (%)
2021-03-01 23:00:00 3.6 6 Sudeste 13 Sudeste 0 -- -- 55
2021-03-01 22:00:00 2.8 2 Sudeste 5 Sudoeste 0 -- -- 81
2021-03-01 21:00:00 3.7 0 Calma 6 Este 0 -- -- 79
2021-03-01 20:00:00 5.9 2 Sudeste 21 Sudeste 0 -- -- 74
2021-03-01 19:00:00 8.1 10 Sur 20 Sudeste 0 -- -- 69
2021-03-01 18:00:00 9.4 9 Sudoeste 23 Oeste 0 -- -- 67
2021-03-01 17:00:00 11.5 15 Oeste 27 Oeste 0 -- -- 61
2021-03-01 16:00:00 12.5 15 Oeste 28 Oeste 0 -- -- 54
2021-03-01 15:00:00 13 18 Oeste 35 Oeste 0 -- -- 52
2021-03-01 14:00:00 13.4 20 Oeste 36 Noroeste 0 -- -- 46
2021-03-01 13:00:00 12.3 4 Norte 14 Oeste 0 -- -- 43
2021-03-01 12:00:00 9.5 8 Noroeste 15 Noroeste 0 -- -- 54
2021-03-01 11:00:00 6.1 3 Noroeste 12 Oeste 0 -- -- 60
2021-03-01 10:00:00 2.4 3 Oeste 7 Sudoeste 0 -- -- 77
2021-03-01 09:00:00 -1.1 0 Calma 6 Oeste 0 -- -- 85
2021-03-01 08:00:00 -2.4 2 Noroeste 7 Oeste 0 -- -- 86
2021-03-01 07:00:00 -2.2 0 Calma 8 Oeste 0 -- -- 85
2021-03-01 06:00:00 -1.7 0 Calma 5 Este 0 -- -- 84
2021-03-01 05:00:00 -1.4 0 Calma 4 Oeste 0 -- -- 82
2021-03-01 04:00:00 -0.5 3 Sudoeste 6 Oeste 0 -- -- 81
2021-03-01 03:00:00 1 0 Calma 4 Este 0 -- -- 69
2021-03-01 02:00:00 0.7 0 Calma 5 Sudoeste 0 -- -- 73
2021-03-01 01:00:00 1.4 3 Este 6 Sur 0 -- -- 72
2021-03-01 00:00:00 1.6 0 Calma 6 Sudeste 0 -- -- 76
2021-02-28 23:00:00 0.9 0 Calma 5 Oeste 0 -- -- 87
2021-02-28 22:00:00 1.3 0 Calma 5 Sudeste 0 -- -- 88
2021-02-28 21:00:00 2.6 2 Este 7 Este 0 -- -- 84
2021-02-28 20:00:00 4.3 6 Sur 10 Sur 0 -- -- 77
2021-02-28 19:00:00 6.4 3 Sudoeste 9 Noroeste 0 -- -- 72
2021-02-28 18:00:00 7.2 6 Oeste 23 Oeste 0 -- -- 67
2021-02-28 17:00:00 7.6 10 Oeste 22 Oeste 0 -- -- 67
2021-02-28 16:00:00 8.5 10 Oeste 24 Oeste 0 -- -- 60
2021-02-28 15:00:00 7.6 15 Oeste 22 Noroeste 0 -- -- 67
2021-02-28 14:00:00 8.2 15 Oeste 22 Oeste 0 -- -- 65
2021-02-28 13:00:00 7.8 8 Noroeste 14 Oeste 0 -- -- 73
2021-02-28 12:00:00 4.1 4 Oeste 12 Oeste 0 -- -- 83
2021-02-28 11:00:00 4.3 5 Norte 10 Noroeste 0 -- -- 79
2021-02-28 10:00:00 3.3 3 Oeste 7 Noroeste 0 -- -- 88
2021-02-28 09:00:00 2.8 0 Calma 5 Oeste 0 -- -- 94
2021-02-28 08:00:00 2.5 0 Calma 4 Oeste 0 -- -- 93
2021-02-28 07:00:00 2.4 0 Calma 8 Sur 0 -- -- 93
2021-02-28 06:00:00 2.8 0 Calma 5 Nordeste 0 -- -- 91
2021-02-28 05:00:00 3.1 0 Calma 4 Sudoeste 0 -- -- 90
2021-02-28 04:00:00 3.1 0 Calma 4 Oeste 0 -- -- 90
2021-02-28 03:00:00 3.3 0 Calma 3 Este 0 -- -- 90
2021-02-28 02:00:00 3.4 0 Calma 8 Noroeste 0 -- -- 89
2021-02-28 01:00:00 3.7 2 Oeste 6 Sur 0 -- -- 88
2021-02-28 00:00:00 4.5 3 Sur 9 Sudoeste 0 -- -- 85
2021-02-27 23:00:00 5.5 3 Sudeste 17 Sudoeste 0 -- -- 85
2021-02-27 22:00:00 5.2 5 Este 12 Sur 0 -- -- 79
2021-02-27 21:00:00 6.4 6 Sur 15 Sur 0 -- -- 75
2021-02-27 20:00:00 6.9 7 Sur 17 Sur 0 -- -- 66
2021-02-27 19:00:00 8.5 7 Sur 19 Sudoeste 0 -- -- 59
2021-02-27 18:00:00 10.5 10 Sudoeste 28 Sudoeste 0 -- -- 55
2021-02-27 17:00:00 13.1 17 Sudoeste 29 Oeste 0 -- -- 48
2021-02-27 16:00:00 15.4 18 Oeste 28 Oeste 0 -- -- 44
2021-02-27 15:00:00 17.3 5 Norte 18 Noroeste 0 -- -- 21
2021-02-27 14:00:00 16.3 6 Norte 20 Noroeste 0 -- -- 22
2021-02-27 13:00:00 15.5 6 Norte 13 Norte 0 -- -- 25
2021-02-27 12:00:00 13.8 5 Nordeste 13 Oeste 0 -- -- 30
2021-02-27 11:00:00 11.1 6 Sudoeste 13 Sudoeste 0 -- -- 38
2021-02-27 10:00:00 5.4 0 Calma 4 Este 0 -- -- 65
2021-02-27 09:00:00 1.5 0 Calma 4 Este 0 -- -- 69
2021-02-27 08:00:00 0.8 3 Sudoeste 6 Este 0 -- -- 71
2021-02-27 07:00:00 0.8 0 Calma 6 Este 0 -- -- 71
2021-02-27 06:00:00 1 0 Calma 5 Sudeste 0 -- -- 72
2021-02-27 05:00:00 1.3 0 Calma 4 Sudoeste 0 -- -- 71
2021-02-27 04:00:00 1.2 0 Calma 5 Este 0 -- -- 73
2021-02-27 03:00:00 2.2 2 Este 5 Sur 0 -- -- 70
2021-02-27 02:00:00 2.4 0 Calma 4 Este 0 -- -- 69
2021-02-27 01:00:00 2.7 0 Calma 4 Oeste 0 -- -- 69
2021-02-27 00:00:00 3.1 0 Calma 4 Sudeste 0 -- -- 68
2021-02-26 23:00:00 3.7 0 Calma 4 Este 0 -- -- 65
2021-02-26 22:00:00 4.2 0 Calma 5 Este 0 -- -- 65
2021-02-26 21:00:00 5.2 2 Sur 6 Este 0 -- -- 64
2021-02-26 20:00:00 6.3 0 Calma 5 Este 0 -- -- 61
2021-02-26 19:00:00 8.4 3 Este 7 Este 0 -- -- 56
2021-02-26 18:00:00 12.1 0 Calma 8 Oeste 0 -- -- 43
2021-02-26 17:00:00 15.6 6 Oeste 14 Norte 0 -- -- 31
2021-02-26 16:00:00 16 6 Nordeste 15 Este 0 -- -- 22
2021-02-26 15:00:00 16.3 5 Nordeste 13 Noroeste 0 -- -- 26
2021-02-26 14:00:00 16.5 5 Norte 14 Sudoeste 0 -- -- 29
2021-02-26 13:00:00 14.6 6 Oeste 13 Noroeste 0 -- -- 32
2021-02-26 12:00:00 12.3 3 Norte 6 Oeste 0 -- -- 38
2021-02-26 11:00:00 9.2 0 Calma 4 Noroeste 0 -- -- 50
2021-02-26 10:00:00 6.2 0 Calma 3 Oeste 0 -- -- 57
2021-02-26 09:00:00 1.9 0 Calma 5 Este 0 -- -- 72
2021-02-26 08:00:00 1.5 0 Calma 5 Este 0 -- -- 68
2021-02-26 07:00:00 1.6 0 Calma 3 Sudoeste 0 -- -- 65
2021-02-26 06:00:00 1.5 3 Este 5 Este 0 -- -- 67
2021-02-26 05:00:00 1.7 0 Calma 3 Este 0 -- -- 64
2021-02-26 04:00:00 2.1 0 Calma 3 Sudoeste 0 -- -- 61
2021-02-26 03:00:00 2.3 0 Calma 5 Oeste 0 -- -- 63
2021-02-26 02:00:00 2.9 0 Calma 4 Sur 0 -- -- 61
2021-02-26 01:00:00 3.2 2 Oeste 5 Nordeste 0 -- -- 63
2021-02-26 00:00:00 3.8 0 Calma 4 Sur 0 -- -- 57
2021-02-25 23:00:00 4.7 0 Calma 4 Este 0 -- -- 58
2021-02-25 22:00:00 5.6 2 Este 5 Este 0 -- -- 57
2021-02-25 21:00:00 6 0 Calma 5 Oeste 0 -- -- 63
2021-02-25 20:00:00 6.5 0 Calma 4 Este 0 -- -- 60
2021-02-25 19:00:00 8.2 0 Calma 4 Nordeste 0 -- -- 59
2021-02-25 18:00:00 12 0 Calma 6 Noroeste 0 -- -- 57
2021-02-25 17:00:00 15 5 Noroeste 15 Oeste 0 -- -- 37
2021-02-25 16:00:00 16.7 8 Noroeste 15 Noroeste 0 -- -- 41
2021-02-25 15:00:00 16.6 8 Oeste 19 Oeste 0 -- -- 30
2021-02-25 14:00:00 14.7 6 Norte 16 Noroeste 0 -- -- 30
2021-02-25 13:00:00 14.5 4 Norte 10 Noroeste 0 -- -- 30
2021-02-25 12:00:00 11.7 4 Norte 8 Oeste 0 -- -- 34
2021-02-25 11:00:00 7.9 0 Calma 5 Oeste 0 -- -- 43
2021-02-25 10:00:00 2.6 0 Calma 4 Este 0 -- -- 67
2021-02-25 09:00:00 -1.1 0 Calma 4 Este 0 -- -- 68
2021-02-25 08:00:00 -1.8 0 Calma 4 Sudoeste 0 -- -- 69
2021-02-25 07:00:00 -1.4 0 Calma 5 Oeste 0 -- -- 69
2021-02-25 06:00:00 -1 2 Este 4 Nordeste 0 -- -- 66
2021-02-25 05:00:00 -1 2 Este 6 Este 0 -- -- 71
2021-02-25 04:00:00 0 6 Oeste 11 Sudoeste 0 -- -- 62
2021-02-25 03:00:00 -0.3 2 Sudoeste 6 Nordeste 0 -- -- 61
2021-02-25 02:00:00 0.1 4 Este 6 Este 0 -- -- 53
2021-02-25 01:00:00 0.5 0 Calma 4 Este 0 -- -- 51
2021-02-25 00:00:00 1.1 0 Calma 4 Sudoeste 0 -- -- 55
2021-02-24 23:00:00 1.7 0 Calma 6 Oeste 0 -- -- 55
2021-02-24 22:00:00 2.3 0 Calma 4 Oeste 0 -- -- 73
2021-02-24 21:00:00 3.7 0 Calma 5 Este 0 -- -- 85
2021-02-24 20:00:00 5.2 2 Este 6 Este 0 -- -- 84
2021-02-24 19:00:00 7.4 0 Calma 5 Nordeste 0 -- -- 77
2021-02-24 18:00:00 11.1 0 Calma 14 Oeste 0 -- -- 63
2021-02-24 17:00:00 13 10 Oeste 27 Oeste 0 -- -- 57
2021-02-24 16:00:00 13.6 20 Oeste 32 Oeste 0 -- -- 58
2021-02-24 15:00:00 14.4 23 Oeste 31 Oeste 0 -- -- 49
2021-02-24 14:00:00 15.3 21 Oeste 28 Oeste 0 -- -- 45
2021-02-24 13:00:00 15.7 13 Oeste 21 Oeste 0 -- -- 39
2021-02-24 12:00:00 13.5 3 Noroeste 8 Noroeste 0 -- -- 55
2021-02-24 11:00:00 9.9 3 Oeste 5 Oeste 0 -- -- 72
2021-02-24 10:00:00 5.4 0 Calma 3 Noroeste 0 -- -- 99
2021-02-24 09:00:00 2.5 0 Calma 4 Este 0 -- -- 99
2021-02-24 08:00:00 1.9 0 Calma 4 Sudeste 0 -- -- 98
2021-02-24 07:00:00 2 0 Calma 4 Sudoeste 0 -- -- 98
2021-02-24 06:00:00 2.1 0 Calma 4 Oeste 0 -- -- 98
2021-02-24 05:00:00 2.3 2 Este 4 Nordeste 0 -- -- 98
2021-02-24 04:00:00 2.4 0 Calma 4 Sudoeste 0 -- -- 98
2021-02-24 03:00:00 2.4 0 Calma 5 Sudeste 0 -- -- 97
2021-02-24 02:00:00 2.8 0 Calma 5 Nordeste 0 -- -- 95
2021-02-24 01:00:00 3.1 2 Oeste 4 Oeste 0 -- -- 94
2021-02-24 00:00:00 3.2 0 Calma 4 Sudoeste 0 -- -- 95
2021-02-23 23:00:00 3.3 0 Calma 5 Oeste 0 -- -- 95
2021-02-23 22:00:00 3.8 0 Calma 5 Este 0 -- -- 94
2021-02-23 21:00:00 4.4 0 Calma 4 Sudoeste 0 -- -- 94
2021-02-23 20:00:00 5.1 0 Calma 5 Sudeste 0 -- -- 91
2021-02-23 19:00:00 6.6 2 Sudeste 6 Sudeste 0 -- -- 87
2021-02-23 18:00:00 10 0 Calma 8 Oeste 0 -- -- 76
2021-02-23 17:00:00 10.8 5 Noroeste 14 Noroeste 0 -- -- 70
2021-02-23 16:00:00 11.1 7 Noroeste 15 Oeste 0 -- -- 69
2021-02-23 15:00:00 11.1 6 Noroeste 21 Noroeste 0 -- -- 67
2021-02-23 14:00:00 11 3 Oeste 17 Noroeste 0 -- -- 69
2021-02-23 13:00:00 10.3 11 Oeste 21 Oeste 0 -- -- 74
2021-02-23 12:00:00 9.9 9 Oeste 18 Oeste 0 -- -- 74
2021-02-23 11:00:00 9.8 6 Oeste 16 Oeste 0 -- -- 78
2021-02-23 10:00:00 8.5 6 Sur 30 Sudoeste 0 -- -- 76
2021-02-23 09:00:00 7.1 8 Sudeste 13 Este 0 -- -- 89
2021-02-23 08:00:00 6.7 6 Sudeste 16 Sudeste 0 -- -- 87
2021-02-23 07:00:00 6.2 6 Sudeste 12 Sur 0.2 -- -- 93
2021-02-23 06:00:00 5.8 2 Sudeste 6 Sur 0 -- -- 96
2021-02-23 05:00:00 5.9 3 Sur 9 Este 0 -- -- 94
2021-02-23 04:00:00 6 4 Sudoeste 12 Sudeste 0 -- -- 93
2021-02-23 03:00:00 6 3 Sudeste 15 Sur 0.2 -- -- 92
2021-02-23 02:00:00 6.4 9 Sudeste 20 Sudeste 0 -- -- 88
2021-02-23 01:00:00 6.2 9 Sudeste 23 Sudeste 0 -- -- 91
2021-02-23 00:00:00 6.2 7 Sur 16 Este 0.2 -- -- 91
2021-02-22 23:00:00 6 8 Sudeste 19 Sudeste 1.2 -- -- 93
2021-02-22 22:00:00 5.7 3 Oeste 9 Sur 0.8 -- -- 98
2021-02-22 21:00:00 5.8 4 Sudeste 8 Sudoeste 0.4 -- -- 97
2021-02-22 20:00:00 5.9 3 Sudeste 9 Sudeste 0.2 -- -- 97
2021-02-22 19:00:00 6.1 3 Sudeste 9 Sur 0.2 -- -- 96
2021-02-22 18:00:00 6.3 4 Norte 17 Sur 0.8 -- -- 94
2021-02-22 17:00:00 6 5 Sudoeste 17 Oeste 1.8 -- -- 96
2021-02-22 16:00:00 5.9 3 Este 17 Sudeste 2.2 -- -- 96
2021-02-22 15:00:00 5.5 4 Sudoeste 12 Este 1.6 -- -- 96
2021-02-22 14:00:00 5.2 3 Sur 10 Sudoeste 2 -- -- 94
2021-02-22 13:00:00 5.2 6 Sur 22 Sudeste 4.2 -- -- 91
2021-02-22 12:00:00 5.4 9 Sudeste 33 Sur 7.2 -- -- 88
2021-02-22 11:00:00 5.6 10 Sudeste 33 Sur 6.2 -- -- 91
2021-02-22 10:00:00 6.4 12 Este 39 Sudoeste 2.6 -- -- 86
2021-02-22 09:00:00 7.1 15 Sur 42 Este 1.6 -- -- 79
2021-02-22 08:00:00 7.6 13 Sur 42 Sur 1 -- -- 79
2021-02-22 07:00:00 9.5 12 Sudeste 42 Sudeste 0 -- -- 64
2021-02-22 06:00:00 9.6 15 Sur 36 Sudeste 0 -- -- 64
2021-02-22 05:00:00 9.4 14 Sudeste 40 Este 0 -- -- 64
2021-02-22 04:00:00 9.2 8 Sudeste 35 Este 0 -- -- 70
2021-02-22 03:00:00 9.3 13 Sudeste 33 Sudeste 0 -- -- 69
2021-02-22 02:00:00 8.8 17 Este 31 Este 0 -- -- 73
2021-02-22 01:00:00 8.4 10 Sudeste 37 Sudeste 0 -- -- 74
2021-02-22 00:00:00 8.2 15 Este 35 Sudeste 0 -- -- 75
2021-02-21 23:00:00 8.3 14 Este 32 Este 0 -- -- 71
2021-02-21 22:00:00 7.9 20 Este 37 Este 0 -- -- 71
2021-02-21 21:00:00 8.7 14 Sudeste 35 Este 0 -- -- 63
2021-02-21 20:00:00 8.5 17 Este 37 Este 0 -- -- 64
2021-02-21 19:00:00 8.4 17 Sudeste 44 Este 0 -- -- 63
2021-02-21 18:00:00 8.6 19 Este 42 Este 0 -- -- 61
2021-02-21 17:00:00 9.5 13 Sudeste 36 Sudeste 0 -- -- 57
2021-02-21 16:00:00 9.8 15 Sudeste 36 Este 0 -- -- 53
2021-02-21 15:00:00 11.7 13 Sur 33 Este 0 -- -- 44
2021-02-21 14:00:00 12.3 13 Sur 32 Sudeste 0 -- -- 40
2021-02-21 13:00:00 11.1 14 Este 36 Este 0 -- -- 38
2021-02-21 12:00:00 10.9 9 Sudeste 28 Este 0 -- -- 34
2021-02-21 11:00:00 10.3 10 Sudeste 21 Sudeste 0 -- -- 36
2021-02-21 10:00:00 8.8 6 Sudeste 14 Sudeste 0 -- -- 37
2021-02-21 09:00:00 5.9 3 Sur 12 Este 0 -- -- 47
2021-02-21 08:00:00 4.3 7 Sur 10 Sudeste 0 -- -- 46
2021-02-21 07:00:00 3.8 4 Sur 9 Sur 0 -- -- 50
2021-02-21 06:00:00 3.8 2 Sudoeste 9 Sudeste 0 -- -- 47
2021-02-21 05:00:00 4 3 Sudoeste 14 Oeste 0 -- -- 51
2021-02-21 04:00:00 3.7 3 Sudeste 11 Sudoeste 0 -- -- 54
2021-02-21 03:00:00 3.7 4 Sudeste 11 Oeste 0 -- -- 50
2021-02-21 02:00:00 3.9 3 Sudeste 8 Sudoeste 0 -- -- 43
2021-02-21 01:00:00 4.5 2 Sudeste 6 Sudoeste 0 -- -- 39
2021-02-21 00:00:00 4.5 3 Este 9 Sur 0 -- -- 42
2021-02-20 23:00:00 4.9 3 Sudeste 8 Oeste 0 -- -- 43
2021-02-20 22:00:00 4.4 2 Nordeste 10 Este 0 -- -- 49
2021-02-20 21:00:00 4.7 4 Sur 11 Oeste 0 -- -- 50
2021-02-20 20:00:00 5.6 4 Este 8 Noroeste 0 -- -- 50
2021-02-20 19:00:00 7.3 5 Sudeste 10 Sudeste 0 -- -- 51
2021-02-20 18:00:00 10.8 4 Este 20 Oeste 0 -- -- 47
2021-02-20 17:00:00 12.5 9 Sudoeste 24 Sudoeste 0 -- -- 40
2021-02-20 16:00:00 13.5 10 Oeste 26 Sudoeste 0 -- -- 38
2021-02-20 15:00:00 15.3 13 Oeste 28 Sudoeste 0 -- -- 33
2021-02-20 14:00:00 15.9 14 Oeste 28 Oeste 0 -- -- 29
2021-02-20 13:00:00 15.8 13 Oeste 28 Oeste 0 -- -- 32
2021-02-20 12:00:00 15 15 Oeste 27 Oeste 0 -- -- 35
2021-02-20 11:00:00 11.6 2 Oeste 9 Noroeste 0 -- -- 56
2021-02-20 10:00:00 6.4 3 Sudeste 9 Noroeste 0 -- -- 71
2021-02-20 09:00:00 2.1 3 Sudoeste 8 Sudeste 0 -- -- 78
2021-02-20 08:00:00 1.4 4 Sudeste 10 Sur 0 -- -- 79
2021-02-20 07:00:00 1.6 2 Sur 5 Sur 0 -- -- 79
2021-02-20 06:00:00 0.9 2 Sudoeste 6 Este 0 -- -- 81
2021-02-20 05:00:00 1.1 0 Calma 8 Sudeste 0 -- -- 80
2021-02-20 04:00:00 0.9 2 Sudoeste 14 Oeste 0 -- -- 80
2021-02-20 03:00:00 0.7 4 Este 12 Sudeste 0 -- -- 80
2021-02-20 02:00:00 1.6 0 Calma 6 Nordeste 0 -- -- 76
2021-02-20 01:00:00 1.9 3 Sudeste 6 Sudeste 0 -- -- 74
2021-02-20 00:00:00 2.3 0 Calma 5 Sur 0 -- -- 73
2021-02-19 23:00:00 2.6 0 Calma 5 Sudoeste 0 -- -- 73
2021-02-19 22:00:00 3 0 Calma 4 Sudoeste 0 -- -- 71
2021-02-19 21:00:00 3.7 2 Sur 6 Este 0 -- -- 69
2021-02-19 20:00:00 5 0 Calma 9 Este 0 -- -- 66
2021-02-19 19:00:00 6.5 3 Nordeste 12 Sudeste 0 -- -- 60
2021-02-19 18:00:00 9.9 4 Sur 11 Este 0 -- -- 49
2021-02-19 17:00:00 12.5 6 Nordeste 23 Oeste 0 -- -- 40
2021-02-19 16:00:00 13.7 9 Noroeste 26 Noroeste 0 -- -- 37
2021-02-19 15:00:00 13.9 12 Oeste 32 Oeste 0 -- -- 36
2021-02-19 14:00:00 14 10 Oeste 27 Oeste 0 -- -- 36
2021-02-19 13:00:00 13.9 9 Noroeste 22 Oeste 0 -- -- 37
2021-02-19 12:00:00 13.5 5 Noroeste 12 Noroeste 0 -- -- 39
2021-02-19 11:00:00 10.4 4 Este 13 Nordeste 0 -- -- 44
2021-02-19 10:00:00 5.1 3 Sudoeste 6 Sur 0 -- -- 74
2021-02-19 09:00:00 1.7 0 Calma 6 Sudeste 0 -- -- 82
2021-02-19 08:00:00 1 4 Sur 8 Sur 0 -- -- 83
2021-02-19 07:00:00 1.4 3 Sudeste 7 Sur 0 -- -- 81
2021-02-19 06:00:00 1.7 0 Calma 4 Nordeste 0 -- -- 79
2021-02-19 05:00:00 1.9 0 Calma 4 Sudoeste 0 -- -- 77
2021-02-19 04:00:00 2.1 0 Calma 7 Sudeste 0 -- -- 76
2021-02-19 03:00:00 2.3 0 Calma 7 Sur 0 -- -- 73
2021-02-19 02:00:00 -- -- -- -- -- -- -- -- --
2021-02-19 01:00:00 2.7 0 Calma 5 Sudeste 0 -- -- 70
2021-02-19 00:00:00 2.9 0 Calma 5 Sudeste 0 -- -- 70
2021-02-18 23:00:00 3.2 2 Sudoeste 5 Este 0 -- -- 69
2021-02-18 22:00:00 3.3 2 Sudoeste 9 Sur 0 -- -- 71
2021-02-18 21:00:00 4.3 3 Sur 8 Este 0 -- -- 67
2021-02-18 20:00:00 5.4 4 Sur 10 Sur 0 -- -- 67
2021-02-18 19:00:00 7.6 5 Nordeste 11 Este 0 -- -- 59
2021-02-18 18:00:00 11.4 4 Sur 18 Nordeste 0 -- -- 46
2021-02-18 17:00:00 13.7 6 Nordeste 24 Nordeste 0 -- -- 36
2021-02-18 16:00:00 14.8 7 Nordeste 29 Nordeste 0 -- -- 39
2021-02-18 15:00:00 14.8 9 Nordeste 35 Oeste 0 -- -- 32
2021-02-18 14:00:00 16.2 18 Noroeste 30 Oeste 0 -- -- 32
2021-02-18 13:00:00 15.4 6 Norte 17 Noroeste 0 -- -- 32
2021-02-18 12:00:00 14.5 5 Norte 14 Nordeste 0 -- -- 36
2021-02-18 11:00:00 10.4 3 Noroeste 7 Noroeste 0 -- -- 61
2021-02-18 10:00:00 5.7 0 Calma 6 Este 0 -- -- 80
2021-02-18 09:00:00 2.8 0 Calma 7 Este 0 -- -- 84
2021-02-18 08:00:00 -- -- -- -- -- -- -- -- --
2021-02-18 07:00:00 2.2 2 Sur 8 Noroeste 0 -- -- 87
2021-02-18 06:00:00 2.8 0 Calma 5 Oeste 0 -- -- 86
2021-02-18 05:00:00 2.4 2 Sudeste 9 Sudeste 0 -- -- 90
2021-02-18 04:00:00 2.3 5 Sudoeste 12 Sudeste 0 -- -- 89
2021-02-18 03:00:00 2.9 3 Sudeste 7 Sudoeste 0 -- -- 88
2021-02-18 02:00:00 3.1 2 Sudeste 5 Sur 0 -- -- 90
2021-02-18 01:00:00 3.4 0 Calma 4 Sur 0 -- -- 89
2021-02-18 00:00:00 4 0 Calma 5 Oeste 0 -- -- 87
2021-02-17 23:00:00 4.6 0 Calma 5 Sudeste 0 -- -- 87
2021-02-17 22:00:00 4.9 2 Nordeste 6 Nordeste 0 -- -- 88
2021-02-17 21:00:00 4.7 2 Sur 6 Este 0 -- -- 86
2021-02-17 20:00:00 5.8 2 Sur 8 Nordeste 0 -- -- 81
2021-02-17 19:00:00 8.1 0 Calma 17 Nordeste 0 -- -- 72
2021-02-17 18:00:00 10.6 5 Nordeste 16 Norte 0 -- -- 60
2021-02-17 17:00:00 11.6 4 Oeste 23 Oeste 0 -- -- 57
2021-02-17 16:00:00 13.5 6 Norte 19 Nordeste 0 -- -- 50
2021-02-17 15:00:00 12.8 9 Nordeste 25 Este 0 -- -- 50
2021-02-17 14:00:00 13.1 11 Noroeste 22 Nordeste 0 -- -- 50
2021-02-17 13:00:00 13.1 6 Norte 22 Oeste 0 -- -- 49
2021-02-17 12:00:00 12.2 8 Nordeste 18 Nordeste 0 -- -- 52
2021-02-17 11:00:00 8.7 6 Este 14 Este 0 -- -- 64
2021-02-17 10:00:00 3.3 2 Nordeste 6 Sudeste 0 -- -- 89
2021-02-17 09:00:00 2.6 0 Calma 4 Sudeste 0 -- -- 91
2021-02-17 08:00:00 2.1 2 Este 6 Sur 0 -- -- 89
2021-02-17 07:00:00 2.9 0 Calma 4 Noroeste 0 -- -- 87
2021-02-17 06:00:00 3.6 0 Calma 6 Nordeste 0 -- -- 84
2021-02-17 05:00:00 3.9 4 Sudeste 13 Sudeste 0 -- -- 81
2021-02-17 04:00:00 4.6 6 Sur 14 Noroeste 0 -- -- 77
2021-02-17 03:00:00 4.7 5 Sudoeste 12 Sudeste 0 -- -- 75
2021-02-17 02:00:00 5.2 4 Sudeste 14 Nordeste 0 -- -- 71
2021-02-17 01:00:00 5.6 5 Sur 16 Noroeste 0 -- -- 68
2021-02-17 00:00:00 5 7 Sur 14 Noroeste 0 -- -- 67
2021-02-16 23:00:00 5.3 4 Este 10 Sur 0 -- -- 63
2021-02-16 22:00:00 6.5 4 Sudeste 10 Sur 0 -- -- 56
2021-02-16 21:00:00 9.8 4 Sur 22 Sudeste 0 -- -- 45
2021-02-16 20:00:00 11.3 8 Sur 17 Sur 0 -- -- 35
2021-02-16 19:00:00 12.2 5 Sudeste 21 Nordeste 0 -- -- 37
2021-02-16 18:00:00 14 8 Norte 24 Noroeste 0 -- -- 34
2021-02-16 17:00:00 15.5 6 Nordeste 22 Nordeste 0 -- -- 33
2021-02-16 16:00:00 15.2 8 Este 23 Nordeste 0 -- -- 34
2021-02-16 15:00:00 15.6 7 Este 16 Nordeste 0 -- -- 35
2021-02-16 14:00:00 14.2 4 Sudeste 10 Sudeste 0 -- -- 41
2021-02-16 13:00:00 11.7 4 Norte 10 Norte 0 -- -- 48
2021-02-16 12:00:00 9.3 4 Oeste 8 Oeste 0 -- -- 61
2021-02-16 11:00:00 4.9 2 Norte 6 Noroeste 0 -- -- 75
2021-02-16 10:00:00 0.2 0 Calma 4 Oeste 0 -- -- 100
2021-02-16 09:00:00 -1.7 0 Calma 8 Oeste 0 -- -- 100
2021-02-16 08:00:00 -- -- -- -- -- -- -- -- --
2021-02-16 07:00:00 -0.5 3 Sudoeste 7 Este 0 -- -- 99
2021-02-16 06:00:00 0 0 Calma 8 Este 0 -- -- 98
2021-02-16 05:00:00 0.6 0 Calma 8 Este 0 -- -- 96
2021-02-16 04:00:00 1.3 3 Este 9 Noroeste 0 -- -- 94
2021-02-16 03:00:00 1.8 4 Sudoeste 9 Oeste 0 -- -- 94
2021-02-16 02:00:00 2.3 5 Oeste 7 Oeste 0 -- -- 93
2021-02-16 01:00:00 2.8 4 Oeste 8 Sudoeste 0 -- -- 92
2021-02-16 00:00:00 3.2 5 Sudoeste 8 Oeste 0 -- -- 90
2021-02-15 23:00:00 3.4 3 Sudeste 6 Este 0 -- -- 92
2021-02-15 22:00:00 3.2 0 Calma 5 Este 0 -- -- 92
2021-02-15 21:00:00 2.9 0 Calma -- -- 0 -- -- 92
2021-02-15 20:00:00 2.7 0 Calma 9 Sudeste 0 -- -- 92
2021-02-15 19:00:00 3.4 0 Calma 7 Sudoeste 0 -- -- 87
2021-02-15 18:00:00 5.6 3 Sudoeste 12 Oeste 0 -- -- 80
2021-02-15 17:00:00 7.6 5 Norte 18 Noroeste 0 -- -- 73
2021-02-15 16:00:00 8 6 Oeste 16 Nordeste 0 -- -- 70
2021-02-15 15:00:00 8 7 Nordeste 20 Norte 0 -- -- 69
2021-02-15 14:00:00 8.2 6 Noroeste 16 Norte 0 -- -- 67
2021-02-15 13:00:00 7.8 5 Norte 18 Noroeste 0 -- -- 72
2021-02-15 12:00:00 5.9 8 Oeste 14 Oeste 0 -- -- 76
2021-02-15 11:00:00 4.9 5 Oeste 10 Noroeste 0 -- -- 83
2021-02-15 10:00:00 2.5 3 Sudoeste 7 Nordeste 0 -- -- 98
2021-02-15 09:00:00 1.7 0 Calma 6 Sudeste 0 -- -- 100
2021-02-15 08:00:00 0.9 0 Calma 13 Sur 0 -- -- 100
2021-02-15 07:00:00 0.9 0 Calma 7 Sur 0 -- -- 100
2021-02-15 06:00:00 1.2 2 Sudoeste 7 Este 0 -- -- 100
2021-02-15 05:00:00 1.3 2 Este 7 Sudoeste 0 -- -- 100
2021-02-15 04:00:00 1.3 4 Sudoeste 10 Sur 0 -- -- 99
2021-02-15 03:00:00 1.5 3 Oeste 6 Sudeste 0 -- -- 98
2021-02-15 02:00:00 1.6 3 Sur 6 Sur 0 -- -- 97
2021-02-15 01:00:00 1.9 0 Calma 4 Nordeste 0 -- -- 96
2021-02-15 00:00:00 2 0 Calma 6 Sudoeste 0 -- -- 96
2021-02-14 23:00:00 2.1 3 Sudoeste 14 Oeste 0 -- -- 96
2021-02-14 22:00:00 2.3 5 Oeste 10 Oeste 0 -- -- 94
2021-02-14 21:00:00 2.7 4 Oeste 9 Noroeste 0 -- -- 90
2021-02-14 20:00:00 3 0 Calma 8 Sudoeste 0 -- -- 89
2021-02-14 19:00:00 3.4 4 Sudoeste 12 Sudoeste 0 -- -- 87
2021-02-14 18:00:00 3.9 7 Sudoeste 13 Sudoeste 0 -- -- 84
2021-02-14 17:00:00 4.6 8 Sudoeste 18 Sudoeste 0 -- -- 83
2021-02-14 16:00:00 5.2 10 Sudoeste 15 Sudoeste 0 -- -- 81
2021-02-14 15:00:00 5.8 6 Nordeste 12 Nordeste 0 -- -- 83
2021-02-14 14:00:00 5.7 4 Sur 12 Sudoeste 0 -- -- 80
2021-02-14 13:00:00 5.4 2 Oeste 9 Oeste 0 -- -- 82
2021-02-14 12:00:00 4.5 3 Noroeste 8 Oeste 0 -- -- 87
2021-02-14 11:00:00 3.7 7 Sudoeste 11 Sur 0 -- -- 88
2021-02-14 10:00:00 3.1 2 Noroeste 5 Noroeste 0 -- -- 94
2021-02-14 09:00:00 1.9 0 Calma 7 Oeste 0 -- -- 99
2021-02-14 08:00:00 1.1 0 Calma 3 Oeste 0 -- -- 99
2021-02-14 07:00:00 0.3 0 Calma 4 Sudoeste 0 -- -- 100
2021-02-14 06:00:00 0.1 4 Este 5 Este 0 -- -- 100
2021-02-14 05:00:00 -0.2 0 Calma 5 Nordeste 0 -- -- 98
2021-02-14 04:00:00 0.6 0 Calma 4 Oeste 0 -- -- 98
2021-02-14 03:00:00 0.8 0 Calma 6 Sudoeste 0 -- -- 98
2021-02-14 02:00:00 1 0 Calma 4 Este 0 -- -- 97
2021-02-14 01:00:00 1.7 0 Calma 4 Sur 0 -- -- 94
2021-02-14 00:00:00 1.9 0 Calma 4 Oeste 0 -- -- 95
2021-02-13 23:00:00 2.3 0 Calma 4 Sudoeste 0 -- -- 95
2021-02-13 22:00:00 2.8 0 Calma 8 Este 0 -- -- 90
2021-02-13 21:00:00 4.1 0 Calma 3 Sudeste 0 -- -- 88
2021-02-13 20:00:00 4.4 0 Calma 6 Este 0 -- -- 87
2021-02-13 19:00:00 5.7 2 Este 12 Sudoeste 0 -- -- 79
2021-02-13 18:00:00 8.3 5 Sudoeste 12 Sudoeste 0 -- -- 70
2021-02-13 17:00:00 10 9 Sudoeste 14 Sudoeste 0 -- -- 62
2021-02-13 16:00:00 11.2 4 Nordeste 9 Nordeste 0 -- -- 48
2021-02-13 15:00:00 9.8 4 Oeste 6 Sudoeste 0 -- -- 55
2021-02-13 14:00:00 8.9 3 Noroeste 10 Este 0 -- -- 61
2021-02-13 13:00:00 7.3 3 Oeste 6 Nordeste 0 -- -- 79
2021-02-13 08:00:00 -- -- -- -- -- -- -- -- --
2021-02-13 07:00:00 -0.7 4 Este 12 Este 0 -- -- 96
2021-02-13 06:00:00 -0.1 5 Este 12 Nordeste 0 -- -- 95
2021-02-13 05:00:00 0.3 2 Sudoeste 14 Este 0 -- -- 94
2021-02-13 04:00:00 0.9 4 Sudeste 10 Nordeste 0 -- -- 92
2021-02-13 03:00:00 2.2 4 Este 17 Nordeste 0 -- -- 89
2021-02-13 02:00:00 3.8 7 Norte 23 Este 0 -- -- 80
2021-02-13 01:00:00 3.2 5 Norte 24 Nordeste 0 -- -- 91
2021-02-13 00:00:00 3.7 6 Este 15 Norte 0 -- -- 92
2021-02-12 23:00:00 3 3 Sudoeste 10 Sudoeste 0 -- -- 100
2021-02-12 22:00:00 3.4 0 Calma 5 Nordeste 0 -- -- 100
2021-02-12 21:00:00 3.9 3 Sudoeste 8 Este 0 -- -- 100
2021-02-12 20:00:00 4.1 4 Este 10 Este 0 -- -- 98
2021-02-12 19:00:00 5.4 0 Calma 10 Sudeste 0 -- -- 97
2021-02-12 18:00:00 5.6 0 Calma 8 Sudeste 0.2 -- -- 97
2021-02-12 17:00:00 6.4 4 Sudoeste 19 Este 4 -- -- 90
2021-02-12 16:00:00 8.2 0 Calma 8 Este 0.6 -- -- 90
2021-02-12 15:00:00 8 4 Este 13 Nordeste 1 -- -- 93
2021-02-12 14:00:00 8 4 Este 15 Este 0.4 -- -- 93
2021-02-12 13:00:00 8.8 7 Nordeste 16 Este 0 -- -- 84
2021-02-12 12:00:00 8.7 4 Sudoeste 17 Sur 0 -- -- 83
2021-02-12 11:00:00 8.5 4 Sur 15 Sur 0 -- -- 87
2021-02-12 10:00:00 6.7 5 Sudeste 10 Sudeste 0 -- -- 92
2021-02-12 09:00:00 4.4 2 Sudoeste 9 Sudeste 0 -- -- 92
2021-02-12 08:00:00 3.8 0 Calma 4 Sudoeste 0 -- -- 93
2021-02-12 07:00:00 3.1 2 Sur 5 Sudoeste 0 -- -- 92
2021-02-12 06:00:00 2.4 0 Calma 4 Sudoeste 0 -- -- 93
2021-02-12 05:00:00 1.6 0 Calma 4 Este 0 -- -- 92
2021-02-12 04:00:00 1.5 0 Calma 4 Noroeste 0 -- -- 90
2021-02-12 03:00:00 1.8 0 Calma 4 Sur 0 -- -- 89
2021-02-12 02:00:00 2.2 0 Calma 5 Este 0 -- -- 85
2021-02-12 01:00:00 2.3 0 Calma 5 Oeste 0 -- -- 84
2021-02-12 00:00:00 2.3 0 Calma 5 Sudeste 0 -- -- 82
2021-02-11 23:00:00 2.2 0 Calma 4 Este 0 -- -- 82
2021-02-11 22:00:00 2.5 0 Calma 4 Este 0 -- -- 81
2021-02-11 21:00:00 3.2 0 Calma 5 Sudoeste 0 -- -- 78
2021-02-11 20:00:00 3.7 0 Calma 7 Este 0 -- -- 78
2021-02-11 19:00:00 4.9 0 Calma 6 Este 0 -- -- 73
2021-02-11 18:00:00 7.1 3 Nordeste 9 Este 0 -- -- 61
2021-02-11 17:00:00 11.2 5 Noroeste 13 Noroeste 0 -- -- 49
2021-02-11 16:00:00 13.7 6 Oeste 12 Noroeste 0 -- -- 40
2021-02-11 15:00:00 13.2 6 Noroeste 15 Noroeste 0 -- -- 39
2021-02-11 14:00:00 11.8 5 Oeste 14 Norte 0 -- -- 44
2021-02-11 13:00:00 10.2 3 Norte 8 Oeste 0 -- -- 39
2021-02-11 12:00:00 7 3 Norte 8 Oeste 0 -- -- 53
2021-02-11 11:00:00 4.4 3 Oeste 5 Oeste 0 -- -- 65
2021-02-11 10:00:00 -0.3 0 Calma 4 Noroeste 0 -- -- 82
2021-02-11 09:00:00 -2.5 0 Calma 5 Sudoeste 0 -- -- 86
2021-02-11 08:00:00 -2.6 2 Sudoeste 4 Oeste 0 -- -- 86
2021-02-11 07:00:00 -2.7 0 Calma 5 Este 0 -- -- 88
2021-02-11 06:00:00 -2.6 3 Este 6 Este 0 -- -- 87
2021-02-11 05:00:00 -2.3 0 Calma 6 Sudoeste 0 -- -- 88
2021-02-11 04:00:00 -2.3 3 Este 5 Sudoeste 0 -- -- 87
2021-02-11 03:00:00 -2.4 0 Calma 6 Este 0 -- -- 86
2021-02-11 02:00:00 -1.9 0 Calma 4 Sudoeste 0 -- -- 86
2021-02-11 01:00:00 -1.5 3 Este 6 Oeste 0 -- -- 85
2021-02-11 00:00:00 -0.9 2 Este 8 Este 0 -- -- 84
2021-02-10 23:00:00 -0.4 3 Este 9 Sudoeste 0 -- -- 81
2021-02-10 22:00:00 1.2 4 Oeste 16 Nordeste 0 -- -- 74
2021-02-10 21:00:00 2 2 Sudoeste 18 Este 0 -- -- 72
2021-02-10 20:00:00 3.7 8 Este 19 Este 0 -- -- 65
2021-02-10 19:00:00 4.7 15 Este 26 Este 0 -- -- 60
2021-02-10 18:00:00 5.4 13 Nordeste 28 Nordeste 0 -- -- 57
2021-02-10 17:00:00 6.5 9 Norte 30 Noroeste 0 -- -- 56
2021-02-10 16:00:00 8.5 6 Nordeste 23 Nordeste 0 -- -- 53
2021-02-10 15:00:00 8.6 10 Noroeste 27 Noroeste 0 -- -- 56
2021-02-10 14:00:00 8.2 7 Nordeste 24 Noroeste 0 -- -- 59
2021-02-10 13:00:00 7.6 5 Norte 14 Noroeste 0 -- -- 69
2021-02-10 12:00:00 4.5 3 Norte 13 Nordeste 0 -- -- 76
2021-02-10 11:00:00 2.8 0 Calma 9 Sudeste 0 -- -- 89
2021-02-10 10:00:00 1.2 2 Noroeste 8 Sudeste 0 -- -- 98
2021-02-10 09:00:00 0.4 4 Sudeste 11 Sudeste 0 -- -- 100
2021-02-10 08:00:00 -0.2 0 Calma 8 Este 0 -- -- 98
2021-02-10 07:00:00 0.1 2 Sur 9 Este 0 -- -- 97
2021-02-10 06:00:00 1.5 6 Este 19 Sudeste 0 -- -- 92
2021-02-10 05:00:00 1.5 6 Sudeste 14 Sur 0 -- -- 95
2021-02-10 04:00:00 1 5 Sur 10 Sur 0 -- -- 100
2021-02-10 03:00:00 0.7 6 Sur 11 Sudeste 0 -- -- 100
2021-02-10 02:00:00 0.4 0 Calma 10 Este 0 -- -- 98
2021-02-10 01:00:00 1.7 6 Sudeste 17 Nordeste 0 -- -- 95
2021-02-10 00:00:00 2.4 9 Este 17 Sudeste 0.2 -- -- 97
2021-02-09 23:00:00 1.4 5 Norte 10 Este 0.2 -- -- 100
2021-02-09 22:00:00 1 6 Nordeste 12 Oeste 0.4 -- -- 100
2021-02-09 21:00:00 0.7 0 Calma 10 Este 0.6 -- -- 100
2021-02-09 20:00:00 0.7 3 Sur 14 Norte 1.4 -- -- 99
2021-02-09 19:00:00 1.3 0 Calma 4 Oeste 0.8 -- -- 98
2021-02-09 18:00:00 1.9 0 Calma 6 Noroeste 1.2 -- -- 95
2021-02-09 17:00:00 2.5 2 Sur 10 Oeste 0.8 -- -- 93
2021-02-09 16:00:00 3.2 5 Oeste 11 Sudoeste 0.8 -- -- 93
2021-02-09 15:00:00 3.7 7 Nordeste 20 Nordeste 0.6 -- -- 89
2021-02-09 14:00:00 4.3 7 Nordeste 17 Este 0 -- -- 86
2021-02-09 13:00:00 4 4 Noroeste 13 Oeste 0 -- -- 87
2021-02-09 12:00:00 3.7 5 Sudoeste 17 Nordeste 0 -- -- 88
2021-02-09 11:00:00 2.7 6 Este 18 Este 0 -- -- 94
2021-02-09 10:00:00 -0.1 4 Sur 11 Sudeste 0 -- -- 100
2021-02-09 09:00:00 -1.4 2 Sudoeste 6 Sudoeste 0 -- -- 100
2021-02-09 08:00:00 -1.6 0 Calma 6 Nordeste 0 -- -- 100
2021-02-09 07:00:00 -1.8 0 Calma 9 Oeste 0 -- -- 100
2021-02-09 06:00:00 -2 2 Sudoeste 12 Noroeste 0 -- -- 98
2021-02-09 05:00:00 -1.3 4 Sudoeste 8 Nordeste 0 -- -- 100
2021-02-09 04:00:00 -1.2 4 Sudoeste 8 Sudoeste 0 -- -- 100
2021-02-09 03:00:00 -1.3 0 Calma 7 Sur 0 -- -- 100
2021-02-09 02:00:00 -1.2 0 Calma 4 Oeste 0 -- -- 99
2021-02-09 01:00:00 -1 0 Calma 4 Sur 0 -- -- 99
2021-02-09 00:00:00 -0.7 0 Calma 4 Sudeste 0 -- -- 98
2021-02-08 23:00:00 0.3 0 Calma 6 Este 0 -- -- 97
2021-02-08 22:00:00 0.9 0 Calma 4 Sur 0 -- -- 95
2021-02-08 21:00:00 2.5 0 Calma 7 Sudoeste 0 -- -- 93
2021-02-08 20:00:00 2.8 6 Sudeste 14 Sudeste 0 -- -- 89
2021-02-08 19:00:00 2.9 9 Este 17 Este 0 -- -- 88
2021-02-08 18:00:00 3 6 Sur 16 Este 0 -- -- 89
2021-02-08 17:00:00 3.3 7 Este 13 Este 0 -- -- 89
2021-02-08 16:00:00 3 4 Nordeste 28 Este 0.4 -- -- 91
2021-02-08 15:00:00 2.7 10 Este 22 Nordeste 0.8 -- -- 92
2021-02-08 14:00:00 3.4 3 Nordeste 15 Nordeste 0.6 -- -- 90
2021-02-08 13:00:00 4.4 5 Este 17 Nordeste 0 -- -- 83
2021-02-08 12:00:00 4.2 5 Nordeste 13 Nordeste 0 -- -- 82
2021-02-08 11:00:00 3.7 3 Nordeste 10 Nordeste 0 -- -- 83
2021-02-08 10:00:00 1.9 3 Sudeste 11 Oeste 0 -- -- 92
2021-02-08 09:00:00 0.6 2 Sudoeste 6 Sudeste 0 -- -- 94
2021-02-08 08:00:00 -0.4 0 Calma 9 Sur 0 -- -- 95
2021-02-08 07:00:00 -1.3 3 Nordeste 11 Nordeste 0 -- -- 96
2021-02-08 06:00:00 -2.3 3 Sudoeste 6 Sudoeste 0 -- -- 95
2021-02-08 05:00:00 -2.3 3 Oeste 7 Este 0 -- -- 94
2021-02-08 04:00:00 -2.2 2 Sudeste 5 Este 0 -- -- 93
2021-02-08 03:00:00 -1.7 0 Calma 8 Nordeste 0 -- -- 92
2021-02-08 02:00:00 -0.6 0 Calma 12 Sur 0 -- -- 89
2021-02-08 01:00:00 0.8 6 Sudeste 10 Sudeste 0 -- -- 86
2021-02-08 00:00:00 0.9 3 Sudoeste 10 Sudeste 0 -- -- 85
2021-02-07 23:00:00 0.7 3 Sudeste 9 Sur 0 -- -- 86
2021-02-07 22:00:00 0.8 3 Este 10 Nordeste 0 -- -- 86
2021-02-07 21:00:00 1.4 0 Calma 4 Sur 0 -- -- 83
2021-02-07 20:00:00 2.5 2 Sudoeste 14 Nordeste 0 -- -- 77
2021-02-07 19:00:00 4.2 9 Nordeste 19 Nordeste 0 -- -- 72
2021-02-07 18:00:00 4.9 10 Nordeste 21 Norte 0 -- -- 68
2021-02-07 17:00:00 6.5 7 Nordeste 17 Nordeste 0 -- -- 54
2021-02-07 16:00:00 8.1 6 Norte 14 Nordeste 0 -- -- 29
2021-02-07 15:00:00 8.3 6 Nordeste 30 Oeste 0 -- -- 34
2021-02-07 14:00:00 7.6 8 Nordeste 22 Nordeste 0 -- -- 41
2021-02-07 13:00:00 7.4 8 Noroeste 21 Norte 0 -- -- 47
2021-02-07 12:00:00 5.6 7 Nordeste 22 Nordeste 0 -- -- 56
2021-02-07 11:00:00 3.9 4 Nordeste 15 Nordeste 0 -- -- 71
2021-02-07 10:00:00 2.5 3 Sudoeste 14 Este 0 -- -- 87
2021-02-07 09:00:00 2 3 Sur 10 Norte 0 -- -- 90
2021-02-07 08:00:00 2.5 5 Este 15 Nordeste 0 -- -- 93
2021-02-07 07:00:00 3.1 4 Este 10 Este 0.6 -- -- 100
2021-02-07 06:00:00 3.3 0 Calma 5 Nordeste 0 -- -- 100
2021-02-07 05:00:00 3.2 4 Oeste 6 Oeste 0 -- -- 99
2021-02-07 04:00:00 3.4 0 Calma 5 Sur 0 -- -- 99
2021-02-07 03:00:00 3.8 0 Calma 6 Sur 0 -- -- 99
2021-02-07 02:00:00 3.6 2 Oeste 5 Nordeste 0 -- -- 99
2021-02-07 01:00:00 3.7 0 Calma 4 Este 0 -- -- 98
2021-02-07 00:00:00 3.7 2 Sudoeste 4 Sudeste 0 -- -- 99
2021-02-06 23:00:00 3.6 0 Calma 7 Este 0 -- -- 99
2021-02-06 22:00:00 3.1 2 Sudoeste 10 Este 0 -- -- 97
2021-02-06 21:00:00 3.5 6 Este 9 Nordeste 0.2 -- -- 96
2021-02-06 20:00:00 3.4 0 Calma 8 Sudeste 0 -- -- 94
2021-02-06 19:00:00 3.6 3 Este 7 Este 0 -- -- 91
2021-02-06 18:00:00 6 0 Calma 11 Este 0 -- -- 84
2021-02-06 17:00:00 6.5 6 Oeste 29 Nordeste 0 -- -- 79
2021-02-06 16:00:00 9.7 4 Nordeste 17 Nordeste 0 -- -- 64
2021-02-06 15:00:00 9 6 Norte 17 Oeste 0.2 -- -- 74
2021-02-06 14:00:00 9.2 6 Noroeste 15 Noroeste 0 -- -- 78
2021-02-06 13:00:00 8.9 10 Noroeste 31 Noroeste 0 -- -- 81
2021-02-06 12:00:00 9.3 17 Oeste 28 Noroeste 0 -- -- 72
2021-02-06 11:00:00 9.9 14 Oeste 26 Oeste 0 -- -- 65
2021-02-06 10:00:00 9.9 10 Noroeste 20 Noroeste 0 -- -- 61
2021-02-06 09:00:00 9.7 7 Sudoeste 19 Sudeste 0 -- -- 59
2021-02-06 08:00:00 9.6 4 Este 11 Este 0 -- -- 54
2021-02-06 07:00:00 10.2 5 Noroeste 12 Oeste 0 -- -- 50
2021-02-06 06:00:00 10.9 5 Sudeste 17 Sudeste 0 -- -- 45
2021-02-06 05:00:00 10.6 6 Sur 14 Oeste 0 -- -- 46
2021-02-06 04:00:00 12 11 Este 36 Este 0 -- -- 40
2021-02-06 03:00:00 11.5 7 Sudeste 26 Sudeste 0 -- -- 40
2021-02-06 02:00:00 10.4 7 Sudeste 15 Este 0 -- -- 43
2021-02-06 01:00:00 9.1 3 Sudeste 8 Sudeste 0 -- -- 52
2021-02-06 00:00:00 8.6 4 Sudeste 8 Sur 0 -- -- 50
2021-02-05 23:00:00 9.5 3 Sudeste 13 Sudoeste 0 -- -- 46
2021-02-05 22:00:00 9.1 2 Oeste 14 Sudoeste 0 -- -- 46
2021-02-05 21:00:00 10.4 6 Sur 20 Sudoeste 0 -- -- 44
2021-02-05 20:00:00 8.6 2 Sur 9 Sur 0 -- -- 52
2021-02-05 19:00:00 9.2 5 Sudeste 13 Sudoeste 0 -- -- 56
2021-02-05 18:00:00 11.2 8 Sudoeste 11 Sudoeste 0 -- -- 52
2021-02-05 17:00:00 12.7 8 Oeste 21 Oeste 0 -- -- 48
2021-02-05 16:00:00 14.2 14 Oeste 27 Oeste 0 -- -- 43
2021-02-05 15:00:00 14.8 19 Oeste 29 Oeste 0 -- -- 41
2021-02-05 14:00:00 15.1 14 Oeste 26 Sudoeste 0 -- -- 40
2021-02-05 13:00:00 15.6 15 Oeste 28 Oeste 0 -- -- 38
2021-02-05 12:00:00 14.7 6 Oeste 17 Sudoeste 0 -- -- 37
2021-02-05 11:00:00 13 4 Sudoeste 14 Este 0 -- -- 47
2021-02-05 10:00:00 11.4 7 Sudeste 20 Oeste 0 -- -- 54
2021-02-05 09:00:00 9.2 11 Oeste 23 Oeste 0 -- -- 56
2021-02-05 08:00:00 6.9 4 Sudoeste 10 Oeste 0 -- -- 67
2021-02-05 07:00:00 6.2 4 Sur 10 Sudoeste 0 -- -- 69
2021-02-05 06:00:00 5.9 2 Sur 6 Oeste 0 -- -- 69
2021-02-05 05:00:00 6.2 0 Calma 5 Este 0 -- -- 67
2021-02-05 04:00:00 5.7 0 Calma 4 Sudeste 0 -- -- 70
2021-02-05 03:00:00 5.9 0 Calma 8 Norte 0 -- -- 68
2021-02-05 02:00:00 6.4 6 Sudoeste 9 Sudoeste 0 -- -- 67
2021-02-05 01:00:00 6.5 3 Sur 9 Sudoeste 0 -- -- 65
2021-02-05 00:00:00 5.9 0 Calma 6 Sur 0 -- -- 65
2021-02-04 23:00:00 5.9 3 Este 8 Noroeste 0 -- -- 68
2021-02-04 22:00:00 7.1 4 Sudoeste 8 Sur 0 -- -- 60
2021-02-04 21:00:00 8.5 2 Sur 14 Sudeste 0 -- -- 55
2021-02-04 20:00:00 8.9 9 Este 17 Este 0 -- -- 49
2021-02-04 19:00:00 8.9 5 Sudoeste 13 Este 0 -- -- 58
2021-02-04 18:00:00 10.5 3 Sur 22 Oeste 0 -- -- 65
2021-02-04 17:00:00 12.3 9 Oeste 30 Oeste 0 -- -- 60
2021-02-04 16:00:00 14.2 6 Oeste 13 Sudoeste 0 -- -- 56
2021-02-04 15:00:00 14.1 5 Este 19 Norte 0 -- -- 52
2021-02-04 14:00:00 13.9 10 Oeste 19 Oeste 0 -- -- 55
2021-02-04 13:00:00 13.9 5 Noroeste 19 Nordeste 0 -- -- 54
2021-02-04 12:00:00 12.9 3 Oeste 7 Oeste 0 -- -- 57
2021-02-04 11:00:00 9.9 3 Noroeste 6 Oeste 0 -- -- 73
2021-02-04 10:00:00 5.7 0 Calma 4 Nordeste 0 -- -- 90
2021-02-04 09:00:00 3.7 0 Calma 6 Sur 0 -- -- 91
2021-02-04 08:00:00 3.4 3 Sudeste 5 Sudeste 0 -- -- 89
2021-02-04 07:00:00 3.4 0 Calma 6 Oeste 0 -- -- 89
2021-02-04 06:00:00 3.5 2 Este 9 Oeste 0 -- -- 88
2021-02-04 05:00:00 3.8 4 Sudeste 8 Oeste 0 -- -- 85
2021-02-04 04:00:00 4.3 2 Sudoeste 8 Sudeste 0 -- -- 84
2021-02-04 03:00:00 4.7 2 Sudeste 7 Sudeste 0 -- -- 82
2021-02-04 02:00:00 5.7 3 Nordeste 7 Noroeste 0 -- -- 79
2021-02-04 01:00:00 5.9 0 Calma 9 Sudeste 0 -- -- 80
2021-02-04 00:00:00 6.3 0 Calma 4 Nordeste 0 -- -- 78
2021-02-03 23:00:00 6.1 0 Calma 5 Este 0 -- -- 78
2021-02-03 22:00:00 6.2 0 Calma 6 Este 0 -- -- 76
2021-02-03 21:00:00 6.8 3 Sur 7 Este 0 -- -- 74
2021-02-03 20:00:00 6.9 2 Sur 6 Sudoeste 0 -- -- 72
2021-02-03 19:00:00 7.6 3 Sudoeste 10 Noroeste 0 -- -- 69
2021-02-03 18:00:00 10.8 6 Sudeste 13 Sudeste 0 -- -- 58
2021-02-03 17:00:00 13.8 5 Oeste 16 Este 0 -- -- 49
2021-02-03 16:00:00 15.6 6 Oeste 24 Nordeste 0 -- -- 45
2021-02-03 15:00:00 15.2 9 Nordeste 27 Nordeste 0 -- -- 44
2021-02-03 14:00:00 15.4 10 Nordeste 27 Nordeste 0 -- -- 46
2021-02-03 13:00:00 15.3 8 Nordeste 21 Este 0 -- -- 46
2021-02-03 12:00:00 14.4 5 Este 21 Sudeste 0 -- -- 52
2021-02-03 11:00:00 11 8 Sur 18 Sudeste 0 -- -- 68
2021-02-03 10:00:00 4.3 0 Calma 6 Este 0 -- -- 97
2021-02-03 09:00:00 2.3 0 Calma 10 Nordeste 0 -- -- 96
2021-02-03 08:00:00 2 3 Este 10 Este 0 -- -- 95
2021-02-03 07:00:00 2.1 2 Este 7 Este 0 -- -- 97
2021-02-03 06:00:00 2.3 2 Este 4 Sur 0 -- -- 97
2021-02-03 05:00:00 2.4 3 Sudeste 5 Sudoeste 0 -- -- 97
2021-02-03 04:00:00 2.2 0 Calma 5 Sudeste 0 -- -- 99
2021-02-03 03:00:00 2.1 0 Calma 5 Sudeste 0 -- -- 98
2021-02-03 02:00:00 2.1 0 Calma 5 Este 0 -- -- 97
2021-02-03 01:00:00 2.9 0 Calma 6 Este 0 -- -- 97
2021-02-03 00:00:00 3.1 4 Este 6 Este 0 -- -- 95
2021-02-02 23:00:00 4.1 0 Calma 5 Este 0 -- -- 96
2021-02-02 22:00:00 4.1 2 Sudoeste 7 Este 0 -- -- 92
2021-02-02 21:00:00 5.3 2 Este 4 Sudoeste 0 -- -- 91
2021-02-02 20:00:00 6.1 0 Calma 4 Este 0 -- -- 87
2021-02-02 19:00:00 7.3 0 Calma 7 Este 0 -- -- 82
2021-02-02 18:00:00 9.4 0 Calma 9 Sur 0 -- -- 73
2021-02-02 17:00:00 12.6 3 Oeste 9 Noroeste 0 -- -- 62
2021-02-02 16:00:00 14.4 4 Oeste 15 Norte 0 -- -- 53
2021-02-02 15:00:00 15.1 5 Noroeste 15 Oeste 0 -- -- 52
2021-02-02 14:00:00 13.9 6 Noroeste 14 Noroeste 0 -- -- 56
2021-02-02 13:00:00 13.2 4 Norte 10 Noroeste 0 -- -- 60
2021-02-02 12:00:00 10.7 3 Nordeste 9 Este 0 -- -- 66
2021-02-02 11:00:00 9.2 5 Sur 14 Sur 0 -- -- 70
2021-02-02 10:00:00 5.7 2 Este 6 Este 0 -- -- 91
2021-02-02 09:00:00 3.8 0 Calma 8 Oeste 0 -- -- 90
2021-02-02 08:00:00 3.6 0 Calma 6 Oeste 0 -- -- 90
2021-02-02 07:00:00 3.8 3 Sudoeste 7 Sur 0 -- -- 90
2021-02-02 06:00:00 3.9 3 Oeste 6 Oeste 0 -- -- 88
2021-02-02 05:00:00 3.8 0 Calma 7 Sur 0 -- -- 85
2021-02-02 04:00:00 4.2 3 Este 7 Este 0 -- -- 82
2021-02-02 03:00:00 4.5 2 Oeste 10 Sudeste 0 -- -- 80
2021-02-02 02:00:00 5.9 6 Este 13 Nordeste 0 -- -- 72
2021-02-02 01:00:00 7.3 6 Nordeste 15 Norte 0 -- -- 68
2021-02-02 00:00:00 8.2 7 Nordeste 28 Este 0 -- -- 66
2021-02-01 23:00:00 8.4 7 Nordeste 30 Nordeste 0 -- -- 65
2021-02-01 22:00:00 8.8 17 Este 30 Este 0 -- -- 63
2021-02-01 21:00:00 9.1 13 Este 34 Este 0 -- -- 61
2021-02-01 20:00:00 9.3 16 Este 35 Este 0 -- -- 58
2021-02-01 19:00:00 9.9 10 Nordeste 33 Norte 0 -- -- 54
2021-02-01 18:00:00 10.7 12 Nordeste 45 Nordeste 0 -- -- 49
2021-02-01 17:00:00 10.9 13 Nordeste 46 Nordeste 0 -- -- 46
2021-02-01 16:00:00 11.9 15 Norte 71 Norte 0 -- -- 43
2021-02-01 15:00:00 12.2 15 Nordeste 42 Norte 0 -- -- 40
2021-02-01 14:00:00 11.3 15 Nordeste 38 Nordeste 0 -- -- 40
2021-02-01 13:00:00 11.1 11 Nordeste 29 Oeste 0 -- -- 50
2021-02-01 12:00:00 9.8 9 Nordeste 37 Nordeste 0 -- -- 57
2021-02-01 11:00:00 8.7 8 Nordeste 21 Este 0 -- -- 61
2021-02-01 10:00:00 3.3 5 Sudeste 17 Nordeste 0 -- -- 94
2021-02-01 09:00:00 1.4 5 Este 18 Nordeste 0 -- -- 97
2021-02-01 08:00:00 1.4 5 Oeste 17 Sudeste 0 -- -- 96
2021-02-01 07:00:00 1.6 3 Sudeste 17 Este 0 -- -- 96
2021-02-01 06:00:00 3 9 Este 18 Este 0 -- -- 92
2021-02-01 05:00:00 3.4 10 Este 19 Sudeste 0 -- -- 95
2021-02-01 04:00:00 2.8 5 Sudeste 15 Sudeste 0 -- -- 99
2021-02-01 03:00:00 2.3 3 Sur 9 Sudoeste 0 -- -- 97
2021-02-01 02:00:00 3.9 6 Sudoeste 12 Este 0 -- -- 94
2021-02-01 01:00:00 4.6 6 Sudeste 37 Este 1.6 -- -- 91
2021-02-01 00:00:00 5.2 10 Sur 23 Sur 0.6 -- -- 88
2021-01-31 23:00:00 2.7 5 Este 11 Nordeste 0 -- -- 88
2021-01-31 22:00:00 2.9 4 Sudeste 7 Este 0 -- -- 86
2021-01-31 21:00:00 3.9 2 Sudeste 8 Este 0 -- -- 82
2021-01-31 20:00:00 5.8 2 Noroeste 22 Este 0 -- -- 74
2021-01-31 19:00:00 7.5 9 Este 22 Este 0 -- -- 68
2021-01-31 18:00:00 8.8 10 Este 24 Nordeste 0 -- -- 63
2021-01-31 17:00:00 10.4 9 Nordeste 24 Norte 0 -- -- 56
2021-01-31 16:00:00 10.8 7 Sudoeste 26 Sudoeste 0 -- -- 51
2021-01-31 15:00:00 11.3 4 Oeste 21 Noroeste 0 -- -- 42
2021-01-31 14:00:00 11.9 7 Norte 31 Noroeste 0 -- -- 48
2021-01-31 13:00:00 11.1 6 Este 19 Sudeste 0 -- -- 50
2021-01-31 12:00:00 9.7 5 Nordeste 17 Nordeste 0 -- -- 57
2021-01-31 11:00:00 7.9 8 Nordeste 22 Nordeste 0 -- -- 64
2021-01-31 10:00:00 4.4 9 Nordeste 22 Este 0 -- -- 77
2021-01-31 09:00:00 0.1 7 Este 18 Este 0 -- -- 95
2021-01-31 08:00:00 -0.6 3 Sudeste 11 Sudeste 0 -- -- 91
2021-01-31 07:00:00 -0.5 3 Sur 12 Nordeste 0 -- -- 92
2021-01-31 06:00:00 0.5 3 Nordeste 14 Nordeste 0 -- -- 89
2021-01-31 05:00:00 0.9 5 Nordeste 12 Este 0 -- -- 89
2021-01-31 04:00:00 0.1 3 Este 8 Norte 0 -- -- 92
2021-01-31 03:00:00 0.5 2 Este 9 Este 0 -- -- 88
2021-01-31 02:00:00 0.5 3 Sudeste 8 Este 0 -- -- 87
2021-01-31 01:00:00 0.1 0 Calma 8 Sudoeste 0 -- -- 89
2021-01-31 00:00:00 1.1 4 Sudoeste 22 Sudeste 0 -- -- 79